createdAt,value
2019-04-16T00:01:53.843Z,19.27
2019-04-16T00:06:57.839Z,18.40
2019-04-16T00:12:10.881Z,17.90
2019-04-16T00:17:15.863Z,18.10
2019-04-16T00:22:25.013Z,18.43
2019-04-16T00:27:28.754Z,17.43
2019-04-16T00:32:31.304Z,16.73
2019-04-16T00:37:34.153Z,17.17
2019-04-16T00:42:36.436Z,18.30
2019-04-16T00:47:38.701Z,18.27
2019-04-16T00:52:41.293Z,17.30
2019-04-16T00:57:43.555Z,19.27
2019-04-16T01:02:47.020Z,18.53
2019-04-16T01:07:49.447Z,19.40
2019-04-16T01:12:51.800Z,19.27
2019-04-16T01:17:54.149Z,18.90
2019-04-16T01:22:56.472Z,18.63
2019-04-16T01:28:01.193Z,18.63
2019-04-16T01:33:05.237Z,18.00
2019-04-16T01:38:20.746Z,19.10
2019-04-16T01:43:25.524Z,18.93
2019-04-16T01:48:27.318Z,19.60
2019-04-16T01:53:29.611Z,19.60
2019-04-16T01:58:34.010Z,19.33
2019-04-16T02:03:35.996Z,20.23
2019-04-16T02:08:38.256Z,19.27
2019-04-16T02:13:45.801Z,18.37
2019-04-16T02:18:44.760Z,18.33
2019-04-16T02:23:48.085Z,18.73
2019-04-16T02:28:51.042Z,19.67
2019-04-16T02:33:53.347Z,18.90
2019-04-16T02:38:55.623Z,19.87
2019-04-16T02:43:57.987Z,18.27
2019-04-16T02:49:00.334Z,18.07
2019-04-16T02:54:10.163Z,19.13
2019-04-16T02:59:14.155Z,19.07
2019-04-16T03:04:20.923Z,19.43
2019-04-16T03:09:23.252Z,19.13
2019-04-16T03:14:29.829Z,19.53
2019-04-16T03:19:31.253Z,19.10
2019-04-16T03:24:33.535Z,20.83
2019-04-16T03:29:35.883Z,21.50
2019-04-16T03:34:38.157Z,19.97
2019-04-16T03:39:43.821Z,19.67
2019-04-16T03:44:44.975Z,18.93
2019-04-16T03:49:47.303Z,18.80
2019-04-16T03:54:53.793Z,19.43
2019-04-16T03:59:53.586Z,19.67
2019-04-16T04:04:57.612Z,18.70
2019-04-16T04:09:59.990Z,19.13
2019-04-16T04:15:02.268Z,19.73
2019-04-16T04:20:06.273Z,19.57
2019-04-16T04:25:08.876Z,19.40
2019-04-16T04:30:11.952Z,18.40
2019-04-16T04:35:20.130Z,19.37
2019-04-16T04:40:20.540Z,18.80
2019-04-16T04:45:22.972Z,19.67
2019-04-16T04:50:25.328Z,20.50
2019-04-16T04:55:27.743Z,20.60
2019-04-16T05:00:30.017Z,20.30
2019-04-16T05:05:34.022Z,20.60
2019-04-16T05:10:39.898Z,20.17
2019-04-16T05:15:40.423Z,20.70
2019-04-16T05:20:46.780Z,21.10
2019-04-16T05:25:47.052Z,19.10
2019-04-16T05:30:52.268Z,20.73
2019-04-16T05:35:53.644Z,20.80
2019-04-16T05:40:55.913Z,20.43
2019-04-16T05:45:58.188Z,21.20
2019-04-16T05:51:00.729Z,20.77
2019-04-16T05:56:07.435Z,20.20
2019-04-16T06:01:14.475Z,20.23
2019-04-16T06:06:16.751Z,20.23
2019-04-16T06:11:28.237Z,20.73
2019-04-16T06:16:31.206Z,20.77
2019-04-16T06:21:35.307Z,21.07
2019-04-16T06:26:44.445Z,22.20
2019-04-16T06:32:04.461Z,22.07
2019-04-16T06:37:14.139Z,20.57
2019-04-16T06:42:38.498Z,21.33
2019-04-16T06:47:57.006Z,22.27
2019-04-16T06:53:03.995Z,21.80
2019-04-16T06:58:23.133Z,22.17
2019-04-16T07:03:44.788Z,22.20
2019-04-16T07:09:05.163Z,20.70
2019-04-16T07:14:07.453Z,20.05
2019-04-16T07:19:11.256Z,22.00
2019-04-16T07:24:13.804Z,19.60
2019-04-16T07:29:24.043Z,19.48
2019-04-16T07:34:30.656Z,18.45
2019-04-16T07:39:46.356Z,19.45
2019-04-16T07:50:21.426Z,19.00
2019-04-16T07:55:26.698Z,20.45
2019-04-16T08:00:29.476Z,19.00
2019-04-16T08:05:32.076Z,17.73
2019-04-16T08:10:34.368Z,18.32
2019-04-16T08:15:36.863Z,18.67
2019-04-16T08:20:39.296Z,20.72
2019-04-16T08:25:41.707Z,19.77
2019-04-16T08:30:43.992Z,17.90
2019-04-16T08:35:46.264Z,18.60
2019-04-16T08:40:48.566Z,19.12
2019-04-16T08:45:50.875Z,19.50
2019-04-16T08:50:57.895Z,18.32
2019-04-16T08:55:57.208Z,19.45
2019-04-16T09:00:59.583Z,18.85
2019-04-16T09:06:04.467Z,19.48
2019-04-16T09:11:06.329Z,19.85
2019-04-16T09:16:10.949Z,18.82
2019-04-16T09:21:13.652Z,20.60
2019-04-16T09:26:29.486Z,18.98
2019-04-16T09:31:36.215Z,19.47
2019-04-16T09:36:52.150Z,21.95
2019-04-16T09:46:59.393Z,20.35
2019-04-16T09:52:03.794Z,19.57
2019-04-16T09:57:04.714Z,20.50
2019-04-16T10:02:11.398Z,20.65
2019-04-16T10:12:15.270Z,19.23
2019-04-16T10:17:17.614Z,19.23
2019-04-16T10:22:20.117Z,20.70
2019-04-16T10:27:24.392Z,20.20
2019-04-16T10:32:28.299Z,19.90
2019-04-16T10:37:30.907Z,21.15
2019-04-16T10:42:51.565Z,21.07
2019-04-16T10:48:13.713Z,19.67
2019-04-16T10:53:26.322Z,19.45
2019-04-16T10:58:47.071Z,19.62
2019-04-16T11:03:51.078Z,18.30
2019-04-16T11:08:53.441Z,17.98
2019-04-16T11:14:00.063Z,16.35
2019-04-16T11:19:00.098Z,17.07
2019-04-16T11:24:03.064Z,18.25
2019-04-16T11:29:05.482Z,17.00
2019-04-16T11:34:09.648Z,15.43
2019-04-16T11:39:12.189Z,17.07
2019-04-16T11:44:17.193Z,16.10
2019-04-16T11:49:20.982Z,16.73
2019-04-16T11:54:23.397Z,17.55
2019-04-16T11:59:25.776Z,15.60
2019-04-16T12:04:32.710Z,16.00
2019-04-16T12:09:45.526Z,15.78
2019-04-16T12:15:07.731Z,16.07
2019-04-16T12:20:28.382Z,16.37
2019-04-16T12:25:38.346Z,16.23
2019-04-16T12:30:58.644Z,17.50
2019-04-16T12:36:14.116Z,15.30
2019-04-16T12:41:20.385Z,15.70
2019-04-16T12:46:40.252Z,16.25
2019-04-16T12:51:44.241Z,16.10
2019-04-16T12:57:04.650Z,16.27
2019-04-16T13:02:24.968Z,15.68
2019-04-16T13:07:38.761Z,16.70
2019-04-16T13:12:40.693Z,15.00
2019-04-16T13:17:56.995Z,16.37
2019-04-16T13:23:00.958Z,13.80
2019-04-16T13:28:03.591Z,14.63
2019-04-16T13:33:05.861Z,15.25
2019-04-16T13:38:09.789Z,14.75
2019-04-16T13:43:15.007Z,15.38
2019-04-16T13:48:27.601Z,14.98
2019-04-16T13:53:36.285Z,15.75
2019-04-16T13:58:40.307Z,15.68
2019-04-16T14:03:42.714Z,16.10
2019-04-16T14:08:45.001Z,14.38
2019-04-16T14:13:50.162Z,15.20
2019-04-16T14:18:51.335Z,14.18
2019-04-16T14:23:54.206Z,15.68
2019-04-16T14:28:56.975Z,14.65
2019-04-16T14:34:17.435Z,14.13
2019-04-16T14:39:26.932Z,14.78
2019-04-16T14:44:31.655Z,14.75
2019-04-16T14:49:35.261Z,14.57
2019-04-16T14:54:45.257Z,14.80
2019-04-16T14:59:55.466Z,14.38
2019-04-16T15:05:02.394Z,14.07
2019-04-16T15:10:10.643Z,14.90
2019-04-16T15:15:20.522Z,18.60
2019-04-16T15:20:24.552Z,14.70
2019-04-16T15:25:28.733Z,14.13
2019-04-16T15:30:32.740Z,13.80
2019-04-16T15:35:39.538Z,13.80
2019-04-16T15:40:49.828Z,13.15
2019-04-16T15:45:59.032Z,13.72
2019-04-16T15:51:20.822Z,13.43
2019-04-16T15:56:44.254Z,13.83
2019-04-16T16:01:54.239Z,13.85
2019-04-16T16:06:58.188Z,13.60
2019-04-16T16:12:10.296Z,13.10
2019-04-16T16:17:12.148Z,13.05
2019-04-16T16:22:14.468Z,12.40
2019-04-16T16:27:16.756Z,12.55
2019-04-16T16:32:19.166Z,12.73
2019-04-16T16:37:21.582Z,12.78
2019-04-16T16:42:23.951Z,11.73
2019-04-16T16:47:30.982Z,14.07
2019-04-16T16:52:49.845Z,12.78
2019-04-16T16:57:52.768Z,15.10
2019-04-16T17:02:57.087Z,15.15
2019-04-16T17:07:59.669Z,14.80
2019-04-16T17:13:02.288Z,12.40
2019-04-16T17:18:04.889Z,10.23
2019-04-16T17:23:07.270Z,9.45
2019-04-16T17:28:09.842Z,9.38
2019-04-16T17:33:12.303Z,8.50
2019-04-16T17:38:14.678Z,9.65
2019-04-16T17:43:21.463Z,9.10
2019-04-16T17:48:41.958Z,10.03
2019-04-16T17:54:03.907Z,10.78
2019-04-16T17:59:16.485Z,13.28
2019-04-16T18:04:23.216Z,13.98
2019-04-16T18:09:27.290Z,13.95
2019-04-16T18:14:47.873Z,15.40
2019-04-16T18:20:08.400Z,16.65
2019-04-16T18:25:21.249Z,16.02
2019-04-16T18:30:33.356Z,17.48
2019-04-16T18:35:37.315Z,13.93
2019-04-16T18:40:47.179Z,12.70
2019-04-16T18:45:52.308Z,13.22
2019-04-16T18:51:00.213Z,11.50
2019-04-16T18:55:59.541Z,12.00
2019-04-16T19:01:03.528Z,10.45
2019-04-16T19:06:05.823Z,9.20
2019-04-16T19:11:08.609Z,10.28
2019-04-16T19:16:10.986Z,11.53
2019-04-16T19:21:13.349Z,10.25
2019-04-16T19:26:15.862Z,10.90
2019-04-16T19:31:22.644Z,10.53
2019-04-16T19:36:27.146Z,10.90
2019-04-16T19:41:26.777Z,9.53
2019-04-16T19:46:29.278Z,9.60
2019-04-16T19:51:31.782Z,10.20
2019-04-16T19:56:34.494Z,13.22
2019-04-16T20:01:36.963Z,8.30
2019-04-16T20:06:39.266Z,8.05
2019-04-16T20:11:41.731Z,8.60
2019-04-16T20:16:44.217Z,8.00
2019-04-16T20:21:48.077Z,8.28
2019-04-16T20:26:50.625Z,8.13
2019-04-16T20:31:53.260Z,8.73
2019-04-16T20:36:56.761Z,8.83
2019-04-16T20:42:00.121Z,8.37
2019-04-16T20:47:07.721Z,8.80
2019-04-16T20:52:06.740Z,9.00
2019-04-16T20:57:09.063Z,9.80
2019-04-16T21:02:11.560Z,9.78
2019-04-16T21:07:15.093Z,9.83
2019-04-16T21:12:17.883Z,10.28
2019-04-16T21:17:20.296Z,11.63
2019-04-16T21:22:24.973Z,10.70
2019-04-16T21:27:26.762Z,10.60
2019-04-16T21:32:31.377Z,10.67
2019-04-16T21:37:44.383Z,12.18
2019-04-16T21:42:46.692Z,12.05
2019-04-16T21:47:49.091Z,12.00
2019-04-16T21:52:55.008Z,12.58
2019-04-16T21:57:55.372Z,11.77
2019-04-16T22:02:57.954Z,11.68
2019-04-16T22:08:00.591Z,12.50
2019-04-16T22:13:03.046Z,12.70
2019-04-16T22:18:09.118Z,12.37
2019-04-16T22:23:09.480Z,13.77
2019-04-16T22:28:12.983Z,11.90
2019-04-16T22:33:15.433Z,11.25
2019-04-16T22:38:17.710Z,11.20
2019-04-16T22:43:39.672Z,11.17
2019-04-16T22:48:56.632Z,11.90
2019-04-16T22:53:59.121Z,12.73
2019-04-16T22:59:01.425Z,12.80
2019-04-16T23:04:04.704Z,12.40
2019-04-16T23:09:07.992Z,13.00
2019-04-16T23:14:10.351Z,13.00
2019-04-16T23:19:12.646Z,12.63
2019-04-16T23:24:14.936Z,13.07
2019-04-16T23:29:17.260Z,13.87
2019-04-16T23:34:19.539Z,13.73
2019-04-16T23:39:21.802Z,14.33
2019-04-16T23:44:28.672Z,13.20
2019-04-16T23:49:35.307Z,13.23
2019-04-16T23:54:44.062Z,15.75
2019-04-16T23:59:50.320Z,15.73
